Time;durP1;ratioP1;P1;durP2;ratioP2;P2;SDS_P1;SDS_P2;PMS_P1;PMS_P2;Temp;Humidity;BMP_temperature;BMP_pressure;BME280_temperature;BME280_humidity;BME280_pressure;Samples;Min_cycle;Max_cycle;Signal;HPM_P1;HPM_P2
2022/08/13 00:02:18;;;;;;;4.35;4.05;;;;;;;;;;5085545;28;24418;-47
2022/08/13 00:05:05;;;;;;;4.80;4.50;;;;;;;;;;5078618;28;24966;-45
2022/08/13 00:07:31;;;;;;;5.30;4.85;;;;;;;;;;5084264;28;24865;-46
2022/08/13 00:09:57;;;;;;;4.72;4.43;;;;;;;;;;5073114;28;24446;-46
2022/08/13 00:15:13;;;;;;;4.60;4.30;;;;;;;;;;5072808;28;24833;-47
2022/08/13 00:17:39;;;;;;;4.82;4.53;;;;;;;;;;5074543;28;24429;-47
2022/08/13 00:20:06;;;;;;;5.07;4.68;;;;;;;;;;5072219;28;24429;-46
2022/08/13 00:22:31;;;;;;;5.00;4.65;;;;;;;;;;5073637;28;24502;-46
2022/08/13 00:24:58;;;;;;;4.90;4.50;;;;;;;;;;5068569;28;24494;-46
2022/08/13 00:27:23;;;;;;;4.95;4.65;;;;;;;;;;5069016;28;24710;-46
2022/08/13 00:29:50;;;;;;;4.72;4.43;;;;;;;;;;5074352;28;24453;-47
2022/08/13 00:32:21;;;;;;;5.10;4.80;;;;;;;;;;5070374;28;24501;-47
2022/08/13 00:34:47;;;;;;;4.88;4.57;;;;;;;;;;5075036;28;24999;-47
2022/08/13 00:37:12;;;;;;;4.88;4.57;;;;;;;;;;5075456;28;24462;-46
2022/08/13 00:39:38;;;;;;;5.20;4.80;;;;;;;;;;5065582;28;24618;-46
2022/08/13 00:42:03;;;;;;;5.27;4.60;;;;;;;;;;5071308;28;24419;-46
2022/08/13 00:44:31;;;;;;;4.90;4.60;;;;;;;;;;5083348;28;24857;-47
2022/08/13 00:48:42;;;;;;;5.03;4.72;;;;;;;;;;5071420;28;24427;-45
2022/08/13 00:49:42;;;;;;;4.90;4.50;;;;;;;;;;5075542;28;24430;-45
2022/08/13 00:52:10;;;;;;;5.00;4.70;;;;;;;;;;5078395;28;24426;-46
2022/08/13 00:54:36;;;;;;;4.85;4.55;;;;;;;;;;5080237;28;24422;-47
2022/08/13 00:57:06;;;;;;;4.88;4.50;;;;;;;;;;5075332;28;24571;-47
2022/08/13 00:59:31;;;;;;;5.32;4.93;;;;;;;;;;5068545;28;24418;-47
2022/08/13 01:01:56;;;;;;;5.30;4.90;;;;;;;;;;5077562;28;24476;-47
2022/08/13 01:04:23;;;;;;;4.80;4.40;;;;;;;;;;5080263;28;24929;-46
2022/08/13 01:06:48;;;;;;;4.80;4.50;;;;;;;;;;5073476;28;24418;-46
2022/08/13 01:09:14;;;;;;;5.70;5.20;;;;;;;;;;5073843;28;24987;-47
2022/08/13 01:11:40;;;;;;;5.10;4.70;;;;;;;;;;5072388;28;24515;-46
2022/08/13 01:14:07;;;;;;;5.03;4.63;;;;;;;;;;5087476;28;24975;-46
2022/08/13 01:16:36;;;;;;;4.95;4.65;;;;;;;;;;5082114;28;24999;-46
2022/08/13 01:19:03;;;;;;;5.32;4.93;;;;;;;;;;5080144;28;24426;-46
2022/08/13 01:21:33;;;;;;;5.18;4.88;;;;;;;;;;5067372;28;25168;-46
2022/08/13 01:23:58;;;;;;;5.00;4.50;;;;;;;;;;5067896;28;24457;-46
2022/08/13 01:26:23;;;;;;;5.20;4.80;;;;;;;;;;5076818;28;24450;-47
2022/08/13 01:28:50;;;;;;;5.07;4.78;;;;;;;;;;5067570;28;24484;-46
2022/08/13 01:31:16;;;;;;;5.20;4.90;;;;;;;;;;5070456;28;25078;-45
2022/08/13 01:33:43;;;;;;;5.33;4.83;;;;;;;;;;5078805;28;24514;-45
2022/08/13 01:36:09;;;;;;;5.15;4.75;;;;;;;;;;5069371;28;24441;-45
2022/08/13 01:38:36;;;;;;;4.80;4.50;;;;;;;;;;5067124;28;24438;-46
2022/08/13 01:41:04;;;;;;;4.93;4.60;;;;;;;;;;5076275;28;24418;-46
2022/08/13 01:43:30;;;;;;;5.20;4.80;;;;;;;;;;5078827;28;24418;-46
2022/08/13 01:45:59;;;;;;;5.50;4.90;;;;;;;;;;5079399;28;24827;-46
2022/08/13 01:51:21;;;;;;;4.90;4.60;;;;;;;;;;5082261;28;24977;-46
2022/08/13 01:53:47;;;;;;;5.32;4.93;;;;;;;;;;5071601;28;24425;-45
2022/08/13 01:56:16;;;;;;;4.90;4.50;;;;;;;;;;5069723;28;25069;-46
2022/08/13 01:58:42;;;;;;;4.95;4.65;;;;;;;;;;5082681;28;24470;-46
2022/08/13 02:01:07;;;;;;;4.88;4.57;;;;;;;;;;5068585;28;24626;-50
2022/08/13 02:03:32;;;;;;;4.93;4.60;;;;;;;;;;5087954;28;25011;-46
2022/08/13 02:05:58;;;;;;;4.90;4.60;;;;;;;;;;5075891;28;24407;-46
2022/08/13 02:08:24;;;;;;;4.60;4.30;;;;;;;;;;5071521;28;24429;-46
2022/08/13 02:10:53;;;;;;;5.32;4.90;;;;;;;;;;5065131;28;24410;-46
2022/08/13 02:13:19;;;;;;;5.25;4.85;;;;;;;;;;5066989;28;24453;-46
2022/08/13 02:15:45;;;;;;;5.00;4.70;;;;;;;;;;5069412;28;24423;-45
2022/08/13 02:18:14;;;;;;;5.15;4.65;;;;;;;;;;5079865;28;24418;-46
2022/08/13 02:20:40;;;;;;;5.57;5.07;;;;;;;;;;5086761;28;24441;-45
2022/08/13 02:23:06;;;;;;;4.80;4.50;;;;;;;;;;5067732;28;24446;-46
2022/08/13 02:25:32;;;;;;;5.20;4.80;;;;;;;;;;5067591;28;24610;-47
2022/08/13 02:27:58;;;;;;;4.90;4.60;;;;;;;;;;5065422;28;24453;-47
2022/08/13 02:30:26;;;;;;;5.30;4.90;;;;;;;;;;5077766;28;24464;-46
2022/08/13 02:32:51;;;;;;;4.70;4.35;;;;;;;;;;5065386;28;24505;-47
2022/08/13 02:35:18;;;;;;;4.80;4.50;;;;;;;;;;5085061;28;24524;-47
2022/08/13 02:37:44;;;;;;;4.87;4.57;;;;;;;;;;5079052;28;24507;-46
2022/08/13 02:41:38;;;;;;;5.10;4.70;;;;;;;;;;5072563;28;24472;-47
2022/08/13 02:42:55;;;;;;;5.10;4.80;;;;;;;;;;5075656;28;24450;-46
2022/08/13 02:45:21;;;;;;;5.40;5.10;;;;;;;;;;5066756;28;25078;-46
2022/08/13 02:47:48;;;;;;;5.13;4.82;;;;;;;;;;5072176;28;25290;-45
2022/08/13 02:50:13;;;;;;;5.10;4.80;;;;;;;;;;5065726;28;24447;-45
2022/08/13 02:52:39;;;;;;;5.90;5.40;;;;;;;;;;5073990;28;24457;-45
2022/08/13 02:55:04;;;;;;;5.50;5.10;;;;;;;;;;5072780;28;26347;-47
2022/08/13 02:57:30;;;;;;;5.07;4.77;;;;;;;;;;5067829;28;24434;-46
2022/08/13 02:59:55;;;;;;;5.30;5.00;;;;;;;;;;5084203;28;24582;-46
2022/08/13 03:02:20;;;;;;;5.20;4.80;;;;;;;;;;5067308;28;24454;-46
2022/08/13 03:04:45;;;;;;;5.10;4.70;;;;;;;;;;5087239;28;24472;-47
2022/08/13 03:07:11;;;;;;;5.30;4.90;;;;;;;;;;5090592;28;24422;-47
2022/08/13 03:09:36;;;;;;;5.40;5.10;;;;;;;;;;5073919;28;24464;-46
2022/08/13 03:12:03;;;;;;;5.70;5.20;;;;;;;;;;5088308;28;24474;-46
2022/08/13 03:14:31;;;;;;;5.20;4.80;;;;;;;;;;5069957;28;24653;-46
2022/08/13 03:16:56;;;;;;;5.40;5.00;;;;;;;;;;5077068;28;24414;-47
2022/08/13 03:19:21;;;;;;;5.20;4.80;;;;;;;;;;5074138;28;24441;-48
2022/08/13 03:21:47;;;;;;;5.10;4.80;;;;;;;;;;5071017;28;25054;-47
2022/08/13 03:24:14;;;;;;;5.50;5.10;;;;;;;;;;5072326;28;24440;-47
2022/08/13 03:26:39;;;;;;;5.88;5.47;;;;;;;;;;5078370;28;24469;-47
2022/08/13 03:29:04;;;;;;;6.00;5.60;;;;;;;;;;5072031;28;24418;-47
2022/08/13 03:31:30;;;;;;;5.60;5.10;;;;;;;;;;5078806;28;24510;-48
2022/08/13 03:33:58;;;;;;;5.60;5.20;;;;;;;;;;5076597;28;24960;-48
2022/08/13 03:36:24;;;;;;;6.00;5.60;;;;;;;;;;5080022;28;24426;-46
2022/08/13 03:38:49;;;;;;;5.85;5.50;;;;;;;;;;5078808;28;24429;-47
2022/08/13 03:41:15;;;;;;;6.10;5.60;;;;;;;;;;5084764;28;24426;-47
2022/08/13 03:43:42;;;;;;;5.57;5.17;;;;;;;;;;5086780;28;24418;-47
2022/08/13 03:46:11;;;;;;;5.63;5.22;;;;;;;;;;5088875;28;25147;-46
2022/08/13 03:48:36;;;;;;;6.20;5.70;;;;;;;;;;5081954;28;24855;-46
2022/08/13 03:51:02;;;;;;;5.77;5.47;;;;;;;;;;5086875;28;25029;-46
2022/08/13 03:53:27;;;;;;;6.30;5.90;;;;;;;;;;5081100;28;24718;-46
2022/08/13 03:55:52;;;;;;;6.47;6.00;;;;;;;;;;5090179;28;24467;-46
2022/08/13 03:58:18;;;;;;;6.18;5.68;;;;;;;;;;5076885;28;24471;-45
2022/08/13 04:00:47;;;;;;;5.70;5.30;;;;;;;;;;5077885;28;24436;-45
2022/08/13 04:03:22;;;;;;;5.85;5.45;;;;;;;;;;5076797;28;24415;-46
2022/08/13 04:05:49;;;;;;;5.28;4.97;;;;;;;;;;5072087;28;24833;-46
2022/08/13 04:08:14;;;;;;;6.13;5.72;;;;;;;;;;5072910;28;24446;-47
2022/08/13 04:10:40;;;;;;;5.80;5.40;;;;;;;;;;5077839;28;24449;-46
2022/08/13 04:13:10;;;;;;;5.70;5.40;;;;;;;;;;5081696;28;25253;-47
2022/08/13 04:15:36;;;;;;;5.90;5.50;;;;;;;;;;5078892;28;24484;-46
2022/08/13 04:18:01;;;;;;;6.10;5.70;;;;;;;;;;5071046;28;24458;-47
2022/08/13 04:20:26;;;;;;;5.70;5.30;;;;;;;;;;5073459;28;24933;-47
2022/08/13 04:22:52;;;;;;;6.10;5.70;;;;;;;;;;5074250;28;24411;-47
2022/08/13 04:25:17;;;;;;;6.20;5.70;;;;;;;;;;5066609;28;24422;-46
2022/08/13 04:27:42;;;;;;;5.80;5.47;;;;;;;;;;5075293;28;24422;-46
2022/08/13 04:30:08;;;;;;;5.80;5.30;;;;;;;;;;5077137;28;24434;-46
2022/08/13 04:32:42;;;;;;;5.70;5.30;;;;;;;;;;5077081;28;24442;-45
2022/08/13 04:35:08;;;;;;;6.20;5.80;;;;;;;;;;5076657;28;24455;-46
2022/08/13 04:37:33;;;;;;;5.47;5.18;;;;;;;;;;5074433;28;24999;-46
2022/08/13 04:39:58;;;;;;;5.83;5.43;;;;;;;;;;5073209;28;24642;-45
2022/08/13 04:42:24;;;;;;;5.60;5.20;;;;;;;;;;5071074;28;24415;-47
2022/08/13 04:44:49;;;;;;;5.90;5.40;;;;;;;;;;5080023;28;24414;-47
2022/08/13 04:47:14;;;;;;;5.70;5.30;;;;;;;;;;5068999;28;24513;-46
2022/08/13 04:49:39;;;;;;;5.50;5.10;;;;;;;;;;5081973;28;25026;-46
2022/08/13 04:52:04;;;;;;;5.65;5.25;;;;;;;;;;5076040;28;24433;-46
2022/08/13 04:54:30;;;;;;;8.27;5.50;;;;;;;;;;5086664;28;24951;-46
2022/08/13 04:56:55;;;;;;;5.87;5.40;;;;;;;;;;5074352;28;24427;-47
2022/08/13 04:59:22;;;;;;;5.27;4.87;;;;;;;;;;5072892;28;24483;-46
2022/08/13 05:01:47;;;;;;;5.80;5.30;;;;;;;;;;5066273;28;24491;-48
2022/08/13 05:04:13;;;;;;;5.40;5.10;;;;;;;;;;5070963;28;25003;-46
2022/08/13 05:06:38;;;;;;;5.72;5.32;;;;;;;;;;5072452;28;24979;-46
2022/08/13 05:09:03;;;;;;;5.70;5.30;;;;;;;;;;5067729;28;24994;-47
2022/08/13 05:11:29;;;;;;;6.07;5.67;;;;;;;;;;5073882;28;24422;-45
2022/08/13 05:13:54;;;;;;;5.60;5.20;;;;;;;;;;5074765;28;24426;-46
2022/08/13 05:16:19;;;;;;;5.20;4.90;;;;;;;;;;5078113;28;24631;-46
2022/08/13 05:18:45;;;;;;;5.97;5.57;;;;;;;;;;5083916;28;24426;-47
2022/08/13 05:21:12;;;;;;;6.07;5.60;;;;;;;;;;5069911;28;24418;-47
2022/08/13 05:23:38;;;;;;;5.28;4.88;;;;;;;;;;5078021;28;24419;-47
2022/08/13 05:26:04;;;;;;;5.82;5.35;;;;;;;;;;5073821;28;24830;-46
2022/08/13 05:28:31;;;;;;;5.60;5.22;;;;;;;;;;5065922;28;25003;-47
2022/08/13 05:30:56;;;;;;;5.57;5.28;;;;;;;;;;5077585;28;24815;-47
2022/08/13 05:33:23;;;;;;;5.30;4.90;;;;;;;;;;5079975;28;24993;-48
2022/08/13 05:35:50;;;;;;;4.90;4.60;;;;;;;;;;5082245;28;24426;-47
2022/08/13 05:38:16;;;;;;;5.20;4.80;;;;;;;;;;5077937;28;24508;-45
2022/08/13 05:40:42;;;;;;;5.10;4.80;;;;;;;;;;5073495;28;24419;-46
2022/08/13 05:43:13;;;;;;;5.18;4.88;;;;;;;;;;5073627;28;24478;-46
2022/08/13 05:45:39;;;;;;;4.78;4.47;;;;;;;;;;5068946;28;24407;-45
2022/08/13 05:48:04;;;;;;;5.80;5.40;;;;;;;;;;5064495;28;24928;-47
2022/08/13 05:50:33;;;;;;;4.90;4.60;;;;;;;;;;5084055;28;24470;-46
2022/08/13 05:53:09;;;;;;;5.70;5.30;;;;;;;;;;5073497;28;24418;-47
2022/08/13 05:55:38;;;;;;;5.40;4.90;;;;;;;;;;5070175;28;24829;-47
2022/08/13 05:58:04;;;;;;;5.75;5.35;;;;;;;;;;5087428;28;24982;-46
2022/08/13 06:03:25;;;;;;;5.20;4.80;;;;;;;;;;5071552;28;24815;-47
2022/08/13 06:05:53;;;;;;;6.80;6.20;;;;;;;;;;5079860;28;24475;-47
2022/08/13 06:08:19;;;;;;;5.43;5.13;;;;;;;;;;5080324;28;24434;-47
2022/08/13 06:10:47;;;;;;;6.45;5.93;;;;;;;;;;5079541;28;25076;-48
2022/08/13 06:13:13;;;;;;;5.47;5.07;;;;;;;;;;5082568;28;24785;-47
2022/08/13 06:15:38;;;;;;;5.70;5.30;;;;;;;;;;5083518;28;24975;-47
2022/08/13 06:18:03;;;;;;;5.37;4.87;;;;;;;;;;5073905;28;24419;-47
2022/08/13 06:20:29;;;;;;;7.00;6.40;;;;;;;;;;5069137;28;24668;-47
2022/08/13 06:22:56;;;;;;;5.97;5.47;;;;;;;;;;5080395;28;24418;-47
2022/08/13 06:25:22;;;;;;;6.00;5.60;;;;;;;;;;5072319;28;24450;-47
2022/08/13 06:27:47;;;;;;;6.17;5.77;;;;;;;;;;5080020;28;24465;-46
2022/08/13 06:30:17;;;;;;;5.40;5.00;;;;;;;;;;5078147;28;24467;-47
2022/08/13 06:32:42;;;;;;;5.50;5.10;;;;;;;;;;5078105;28;24426;-46
2022/08/13 06:35:08;;;;;;;7.90;7.30;;;;;;;;;;5081547;28;25261;-47
2022/08/13 06:37:33;;;;;;;6.30;5.90;;;;;;;;;;5071969;28;24416;-47
2022/08/13 06:39:59;;;;;;;6.27;5.87;;;;;;;;;;5067947;28;25158;-48
2022/08/13 06:42:24;;;;;;;6.25;5.75;;;;;;;;;;5068983;28;24863;-49
2022/08/13 06:44:50;;;;;;;5.72;5.32;;;;;;;;;;5075409;28;24422;-47
2022/08/13 06:47:16;;;;;;;8.02;6.30;;;;;;;;;;5071170;28;24622;-46
2022/08/13 06:49:41;;;;;;;7.27;6.13;;;;;;;;;;5076719;28;24956;-47
2022/08/13 06:52:06;;;;;;;7.30;5.50;;;;;;;;;;5072389;28;24438;-47
2022/08/13 06:54:33;;;;;;;6.47;5.88;;;;;;;;;;5072835;28;24964;-48
2022/08/13 06:56:59;;;;;;;6.57;5.97;;;;;;;;;;5071423;28;24415;-47
2022/08/13 06:59:25;;;;;;;7.13;6.53;;;;;;;;;;5073895;28;24704;-47
2022/08/13 07:01:53;;;;;;;6.20;5.70;;;;;;;;;;5064772;28;24506;-47
2022/08/13 07:04:19;;;;;;;6.40;5.90;;;;;;;;;;5068412;28;24429;-48
2022/08/13 07:06:47;;;;;;;6.50;6.00;;;;;;;;;;5081366;28;24425;-47
2022/08/13 07:09:12;;;;;;;6.30;5.75;;;;;;;;;;5082960;28;25122;-47
2022/08/13 07:11:37;;;;;;;5.87;5.47;;;;;;;;;;5086616;28;24528;-47
2022/08/13 07:14:02;;;;;;;6.47;5.97;;;;;;;;;;5077597;28;24943;-47
2022/08/13 07:16:33;;;;;;;7.80;7.20;;;;;;;;;;5074480;28;24422;-47
2022/08/13 07:18:59;;;;;;;9.15;8.45;;;;;;;;;;5074357;28;24798;-47
2022/08/13 07:21:25;;;;;;;13.90;12.80;;;;;;;;;;5086076;28;24817;-47
2022/08/13 07:23:51;;;;;;;11.27;10.38;;;;;;;;;;5074156;28;24927;-48
2022/08/13 07:26:18;;;;;;;7.35;6.60;;;;;;;;;;5069725;28;24430;-47
2022/08/13 07:28:46;;;;;;;6.60;6.10;;;;;;;;;;5075253;28;24483;-48
2022/08/13 07:31:13;;;;;;;6.90;6.30;;;;;;;;;;5065769;28;24430;-47
2022/08/13 07:33:42;;;;;;;8.35;6.65;;;;;;;;;;5065075;28;24992;-47
2022/08/13 07:36:08;;;;;;;7.20;6.70;;;;;;;;;;5076412;28;24429;-47
2022/08/13 07:38:34;;;;;;;7.00;6.50;;;;;;;;;;5086388;28;24386;-48
2022/08/13 07:41:00;;;;;;;6.25;5.75;;;;;;;;;;5085344;28;24409;-48
2022/08/13 07:43:26;;;;;;;6.50;6.00;;;;;;;;;;5086442;28;24765;-48
2022/08/13 07:46:07;;;;;;;6.50;6.00;;;;;;;;;;5086691;28;24446;-47
2022/08/13 07:48:34;;;;;;;6.22;5.72;;;;;;;;;;5086326;28;24505;-46
2022/08/13 07:50:59;;;;;;;5.70;5.30;;;;;;;;;;5090039;28;24447;-48
2022/08/13 07:53:24;;;;;;;6.93;6.33;;;;;;;;;;5077094;28;24418;-47
2022/08/13 07:55:51;;;;;;;6.57;5.87;;;;;;;;;;5075995;28;24983;-47
2022/08/13 07:58:16;;;;;;;5.70;5.20;;;;;;;;;;5078395;28;24464;-48
2022/08/13 08:00:45;;;;;;;6.60;5.90;;;;;;;;;;5069909;28;24652;-47
2022/08/13 08:03:10;;;;;;;6.93;6.20;;;;;;;;;;5075629;28;24421;-48
2022/08/13 08:05:37;;;;;;;6.63;6.03;;;;;;;;;;5081091;28;24843;-48
2022/08/13 08:08:04;;;;;;;5.85;5.35;;;;;;;;;;5089867;28;24509;-48
2022/08/13 08:10:30;;;;;;;6.60;6.10;;;;;;;;;;5077571;28;25076;-48
2022/08/13 08:12:59;;;;;;;6.68;6.10;;;;;;;;;;5088540;28;24454;-48
2022/08/13 08:15:25;;;;;;;6.85;6.35;;;;;;;;;;5085425;28;24440;-47
2022/08/13 08:17:50;;;;;;;6.73;6.20;;;;;;;;;;5084784;28;24505;-47
2022/08/13 08:20:23;;;;;;;6.22;5.63;;;;;;;;;;5076243;28;25171;-48
2022/08/13 08:22:48;;;;;;;5.70;5.30;;;;;;;;;;5083058;28;25010;-48
2022/08/13 08:25:17;;;;;;;6.63;6.13;;;;;;;;;;5081981;28;24395;-48
2022/08/13 08:27:43;;;;;;;8.70;6.03;;;;;;;;;;5078023;28;24441;-48
2022/08/13 08:30:08;;;;;;;6.33;5.83;;;;;;;;;;5083677;28;24398;-48
2022/08/13 08:32:35;;;;;;;6.50;5.97;;;;;;;;;;5082015;28;24414;-47
2022/08/13 08:35:01;;;;;;;6.65;6.00;;;;;;;;;;5087437;28;24406;-47
2022/08/13 08:42:55;;;;;;;6.38;5.88;;;;;;;;;;5070873;28;24468;-48
2022/08/13 08:45:21;;;;;;;6.80;6.28;;;;;;;;;;5078844;28;24418;-47
2022/08/13 08:47:48;;;;;;;6.40;6.00;;;;;;;;;;5070103;28;24418;-48
2022/08/13 08:50:16;;;;;;;6.65;6.15;;;;;;;;;;5080559;28;21188;-46
2022/08/13 08:53:20;;;;;;;8.30;7.60;;;;;;;;;;5070196;28;24476;-47
2022/08/13 08:55:46;;;;;;;6.30;5.80;;;;;;;;;;5082246;28;24448;-48
2022/08/13 08:58:11;;;;;;;7.20;6.60;;;;;;;;;;5086007;28;24810;-46
2022/08/13 09:00:37;;;;;;;6.00;5.40;;;;;;;;;;5068020;28;24521;-48
2022/08/13 09:03:03;;;;;;;7.10;6.50;;;;;;;;;;5068914;28;24391;-48
2022/08/13 09:05:29;;;;;;;6.03;5.53;;;;;;;;;;5069243;28;24390;-47
2022/08/13 09:07:54;;;;;;;6.60;6.10;;;;;;;;;;5068598;28;24937;-47
2022/08/13 09:10:21;;;;;;;7.40;6.20;;;;;;;;;;5068439;28;24951;-47
2022/08/13 09:12:48;;;;;;;6.00;5.50;;;;;;;;;;5068474;28;24410;-47
2022/08/13 09:15:21;;;;;;;6.05;5.55;;;;;;;;;;5068487;28;24430;-47
2022/08/13 09:17:46;;;;;;;6.00;5.40;;;;;;;;;;5068633;28;24456;-47
2022/08/13 09:20:13;;;;;;;7.10;6.45;;;;;;;;;;5068498;28;24824;-47
2022/08/13 09:22:40;;;;;;;6.20;5.80;;;;;;;;;;5068562;28;24925;-47
2022/08/13 09:25:06;;;;;;;7.65;7.05;;;;;;;;;;5068274;28;24383;-49
2022/08/13 09:27:31;;;;;;;6.68;6.18;;;;;;;;;;5068652;28;24490;-48
2022/08/13 09:29:56;;;;;;;6.67;6.20;;;;;;;;;;5068343;28;24425;-49
2022/08/13 09:32:22;;;;;;;7.67;6.97;;;;;;;;;;5084166;28;24793;-48
2022/08/13 09:34:47;;;;;;;7.28;6.70;;;;;;;;;;5085540;28;24636;-52
2022/08/13 09:37:13;;;;;;;7.00;6.50;;;;;;;;;;5083704;28;25039;-48
2022/08/13 09:39:42;;;;;;;7.70;7.10;;;;;;;;;;5078416;28;24418;-48
2022/08/13 09:42:11;;;;;;;7.35;6.85;;;;;;;;;;5084206;28;24414;-48
2022/08/13 09:44:41;;;;;;;8.00;7.40;;;;;;;;;;5086524;28;24941;-47
2022/08/13 09:47:08;;;;;;;7.70;7.00;;;;;;;;;;5085836;28;24464;-48
2022/08/13 09:49:33;;;;;;;7.30;6.60;;;;;;;;;;5086629;28;24405;-47
2022/08/13 09:51:58;;;;;;;6.90;6.30;;;;;;;;;;5085832;28;24418;-48
2022/08/13 09:54:24;;;;;;;7.20;6.70;;;;;;;;;;5086281;28;24916;-48
2022/08/13 09:56:49;;;;;;;7.20;6.70;;;;;;;;;;5078663;28;24441;-49
2022/08/13 09:59:15;;;;;;;6.93;6.43;;;;;;;;;;5073106;28;25373;-48
2022/08/13 10:01:41;;;;;;;6.80;6.30;;;;;;;;;;5074526;28;24855;-48
2022/08/13 10:04:06;;;;;;;7.90;7.40;;;;;;;;;;5078405;28;24590;-49
2022/08/13 10:06:32;;;;;;;7.80;7.10;;;;;;;;;;5082945;28;24773;-49
2022/08/13 10:08:59;;;;;;;7.90;7.30;;;;;;;;;;5070681;28;24422;-47
2022/08/13 10:11:24;;;;;;;8.20;7.60;;;;;;;;;;5077060;28;24444;-47
2022/08/13 10:13:49;;;;;;;8.20;7.53;;;;;;;;;;5082491;28;24438;-48
2022/08/13 10:16:14;;;;;;;10.00;9.20;;;;;;;;;;5079240;28;25011;-49
2022/08/13 10:18:41;;;;;;;9.40;8.60;;;;;;;;;;5085589;28;24418;-47
2022/08/13 10:21:07;;;;;;;9.40;7.80;;;;;;;;;;5069304;28;24410;-48
2022/08/13 10:23:32;;;;;;;8.60;7.93;;;;;;;;;;5067286;28;24418;-48
2022/08/13 10:25:57;;;;;;;8.90;8.20;;;;;;;;;;5073293;28;24424;-47
2022/08/13 10:28:24;;;;;;;9.53;8.70;;;;;;;;;;5071817;28;24433;-48
2022/08/13 10:30:50;;;;;;;9.32;8.63;;;;;;;;;;5075904;28;24654;-48
2022/08/13 10:33:16;;;;;;;9.40;8.70;;;;;;;;;;5067393;28;24502;-48
2022/08/13 10:35:41;;;;;;;9.13;8.43;;;;;;;;;;5077387;28;24584;-47
2022/08/13 10:38:08;;;;;;;8.52;7.93;;;;;;;;;;5065212;28;24424;-47
2022/08/13 10:40:33;;;;;;;8.25;7.65;;;;;;;;;;5063942;28;24565;-48
2022/08/13 10:42:59;;;;;;;9.63;8.93;;;;;;;;;;5076412;28;24952;-48
2022/08/13 10:45:24;;;;;;;9.30;8.70;;;;;;;;;;5074605;28;24507;-47
2022/08/13 10:47:50;;;;;;;7.97;7.47;;;;;;;;;;5072351;28;24483;-48
2022/08/13 10:50:17;;;;;;;9.00;8.40;;;;;;;;;;5069227;28;24954;-46
2022/08/13 10:52:42;;;;;;;8.20;7.55;;;;;;;;;;5072477;28;25000;-46
2022/08/13 10:55:11;;;;;;;8.37;7.77;;;;;;;;;;5079473;28;24548;-47
2022/08/13 10:57:37;;;;;;;7.78;7.28;;;;;;;;;;5079673;28;25089;-46
2022/08/13 11:00:03;;;;;;;7.77;7.17;;;;;;;;;;5083211;28;24521;-46
2022/08/13 11:02:28;;;;;;;8.20;7.60;;;;;;;;;;5080277;28;24980;-47
2022/08/13 11:04:54;;;;;;;7.80;7.30;;;;;;;;;;5072326;28;25097;-48
2022/08/13 11:07:20;;;;;;;10.10;9.20;;;;;;;;;;5082061;28;24434;-47
2022/08/13 11:09:45;;;;;;;9.25;8.55;;;;;;;;;;5065313;28;25068;-47
2022/08/13 11:12:10;;;;;;;8.77;8.18;;;;;;;;;;5065766;28;25034;-47
2022/08/13 11:14:36;;;;;;;9.60;8.80;;;;;;;;;;5074599;28;24479;-47
2022/08/13 11:17:04;;;;;;;8.03;7.53;;;;;;;;;;5087099;28;24847;-47
2022/08/13 11:19:29;;;;;;;8.20;7.50;;;;;;;;;;5079353;28;24411;-46
2022/08/13 11:21:55;;;;;;;8.37;7.77;;;;;;;;;;5080188;28;24429;-46
2022/08/13 11:24:20;;;;;;;10.30;9.40;;;;;;;;;;5078448;28;24410;-47
2022/08/13 11:26:47;;;;;;;9.40;8.70;;;;;;;;;;5074752;28;24438;-48
2022/08/13 11:29:13;;;;;;;10.27;9.47;;;;;;;;;;5079877;28;25065;-47
2022/08/13 11:31:38;;;;;;;9.95;9.25;;;;;;;;;;5083883;28;24434;-46
2022/08/13 11:34:03;;;;;;;11.63;10.63;;;;;;;;;;5081367;28;24461;-47
2022/08/13 11:36:28;;;;;;;10.90;10.05;;;;;;;;;;5080858;28;24418;-47
2022/08/13 11:38:54;;;;;;;10.40;9.60;;;;;;;;;;5085068;28;24440;-47
2022/08/13 11:41:19;;;;;;;11.10;10.10;;;;;;;;;;5071060;28;24480;-47
2022/08/13 11:43:44;;;;;;;11.00;10.10;;;;;;;;;;5068945;28;24433;-48
2022/08/13 11:46:09;;;;;;;9.90;9.20;;;;;;;;;;5071089;28;24500;-47
2022/08/13 11:48:35;;;;;;;10.43;9.73;;;;;;;;;;5081864;28;24437;-48
2022/08/13 11:51:00;;;;;;;10.97;10.17;;;;;;;;;;5085796;28;24477;-48
2022/08/13 11:53:26;;;;;;;11.55;10.65;;;;;;;;;;5080349;28;24953;-47
2022/08/13 11:55:51;;;;;;;10.50;9.60;;;;;;;;;;5067919;28;24418;-47
2022/08/13 11:58:16;;;;;;;10.35;9.65;;;;;;;;;;5081140;28;24521;-48
2022/08/13 12:00:42;;;;;;;12.17;11.07;;;;;;;;;;5079710;28;24681;-48
2022/08/13 12:03:08;;;;;;;12.57;11.57;;;;;;;;;;5086863;28;24489;-47
2022/08/13 12:05:33;;;;;;;11.75;10.85;;;;;;;;;;5084159;28;24491;-49
2022/08/13 12:07:58;;;;;;;12.90;11.87;;;;;;;;;;5068799;28;25011;-48
2022/08/13 12:10:23;;;;;;;13.30;12.27;;;;;;;;;;5071989;28;24481;-48
2022/08/13 12:12:48;;;;;;;12.10;11.20;;;;;;;;;;5067260;28;24948;-47
2022/08/13 12:15:14;;;;;;;11.88;10.98;;;;;;;;;;5073322;28;24785;-48
2022/08/13 12:17:42;;;;;;;12.40;11.50;;;;;;;;;;5068484;28;24843;-48
2022/08/13 12:20:08;;;;;;;13.48;12.27;;;;;;;;;;5074725;28;24433;-48
2022/08/13 12:22:33;;;;;;;14.45;13.20;;;;;;;;;;5067041;28;24535;-47
2022/08/13 12:24:58;;;;;;;14.63;13.47;;;;;;;;;;5076039;28;24561;-48
2022/08/13 12:27:24;;;;;;;13.77;12.77;;;;;;;;;;5075571;28;24471;-48
2022/08/13 12:29:49;;;;;;;13.70;12.50;;;;;;;;;;5083603;28;25045;-48
2022/08/13 12:32:14;;;;;;;13.40;12.38;;;;;;;;;;5078599;28;24423;-48
2022/08/13 12:34:39;;;;;;;13.60;12.60;;;;;;;;;;5087035;28;24421;-48
2022/08/13 12:37:04;;;;;;;13.80;12.80;;;;;;;;;;5075462;28;24441;-47
2022/08/13 12:39:30;;;;;;;13.90;12.88;;;;;;;;;;5074730;28;24429;-46
2022/08/13 12:41:55;;;;;;;13.00;11.90;;;;;;;;;;5072060;28;24841;-47
2022/08/13 12:44:20;;;;;;;12.33;11.43;;;;;;;;;;5083886;28;24518;-48
2022/08/13 12:46:46;;;;;;;12.73;11.83;;;;;;;;;;5083858;28;24532;-47
2022/08/13 12:49:11;;;;;;;13.40;12.20;;;;;;;;;;5089151;28;24532;-46
2022/08/13 12:51:36;;;;;;;11.98;10.88;;;;;;;;;;5089334;28;24412;-46
2022/08/13 12:54:01;;;;;;;13.60;12.50;;;;;;;;;;5089394;28;24745;-48
2022/08/13 12:56:26;;;;;;;12.70;11.60;;;;;;;;;;5089214;28;24929;-46
2022/08/13 12:58:52;;;;;;;12.50;11.60;;;;;;;;;;5080000;28;24775;-48
2022/08/13 13:01:17;;;;;;;13.35;12.25;;;;;;;;;;5087517;28;24540;-47
2022/08/13 13:03:42;;;;;;;12.43;11.53;;;;;;;;;;5070290;28;24472;-48
2022/08/13 13:06:10;;;;;;;11.93;10.95;;;;;;;;;;5075030;28;24471;-47
2022/08/13 13:08:36;;;;;;;13.15;12.15;;;;;;;;;;5071581;28;25072;-48
2022/08/13 13:11:03;;;;;;;10.95;10.15;;;;;;;;;;5077148;28;24418;-47
2022/08/13 13:13:29;;;;;;;13.30;12.30;;;;;;;;;;5084606;28;24903;-47
2022/08/13 13:15:55;;;;;;;10.65;9.85;;;;;;;;;;5074780;28;24439;-48
2022/08/13 13:18:21;;;;;;;13.25;12.20;;;;;;;;;;5068792;28;24411;-47
2022/08/13 13:20:47;;;;;;;12.98;12.05;;;;;;;;;;5084612;28;24784;-47
2022/08/13 13:23:14;;;;;;;12.13;11.23;;;;;;;;;;5070637;28;24437;-47
2022/08/13 13:25:40;;;;;;;11.32;10.52;;;;;;;;;;5069364;28;24490;-47
2022/08/13 13:28:07;;;;;;;10.90;10.13;;;;;;;;;;5087357;28;24500;-48
2022/08/13 13:30:32;;;;;;;11.10;10.30;;;;;;;;;;5088201;28;24409;-47
2022/08/13 13:32:58;;;;;;;10.00;9.20;;;;;;;;;;5075445;28;24782;-48
2022/08/13 13:35:23;;;;;;;11.00;10.17;;;;;;;;;;5071545;28;24816;-48
2022/08/13 13:37:49;;;;;;;11.98;11.13;;;;;;;;;;5078806;28;24410;-48
2022/08/13 13:40:14;;;;;;;11.00;10.10;;;;;;;;;;5088285;28;24422;-47
2022/08/13 13:42:41;;;;;;;10.47;9.77;;;;;;;;;;5074158;28;24418;-48
2022/08/13 13:45:06;;;;;;;10.90;10.00;;;;;;;;;;5085294;28;25076;-48
2022/08/13 13:47:31;;;;;;;11.77;10.88;;;;;;;;;;5084810;28;24521;-48
2022/08/13 13:49:56;;;;;;;11.83;10.83;;;;;;;;;;5088384;28;24757;-47
2022/08/13 13:52:22;;;;;;;11.17;10.37;;;;;;;;;;5080479;28;24630;-48
2022/08/13 13:54:49;;;;;;;11.30;10.50;;;;;;;;;;5072343;28;24656;-47
2022/08/13 13:57:14;;;;;;;10.80;10.10;;;;;;;;;;5073775;28;24539;-48
2022/08/13 13:59:40;;;;;;;11.60;10.80;;;;;;;;;;5073431;28;24793;-48
2022/08/13 14:02:05;;;;;;;10.10;9.40;;;;;;;;;;5069497;28;24426;-48
2022/08/13 14:04:30;;;;;;;10.53;9.83;;;;;;;;;;5071661;28;24488;-48
2022/08/13 14:07:02;;;;;;;9.82;9.13;;;;;;;;;;5084685;28;24421;-47
2022/08/13 14:09:27;;;;;;;9.63;9.02;;;;;;;;;;5083771;28;24453;-47
2022/08/13 14:11:53;;;;;;;10.37;9.57;;;;;;;;;;5068691;28;24877;-48
2022/08/13 14:14:18;;;;;;;9.40;8.80;;;;;;;;;;5073955;28;24433;-48
2022/08/13 14:16:46;;;;;;;10.40;9.57;;;;;;;;;;5085149;28;24429;-48
2022/08/13 14:19:11;;;;;;;9.00;8.40;;;;;;;;;;5067799;28;24664;-48
2022/08/13 14:21:38;;;;;;;9.20;8.60;;;;;;;;;;5078777;28;24607;-47
2022/08/13 14:24:03;;;;;;;9.85;9.15;;;;;;;;;;5076754;28;24440;-48
2022/08/13 14:26:30;;;;;;;10.23;9.43;;;;;;;;;;5084621;28;24430;-48
2022/08/13 14:28:56;;;;;;;9.63;8.93;;;;;;;;;;5083044;28;24992;-46
2022/08/13 14:31:21;;;;;;;10.00;9.30;;;;;;;;;;5082188;28;24579;-48
2022/08/13 14:33:47;;;;;;;10.30;9.60;;;;;;;;;;5085970;28;25001;-47
2022/08/13 14:36:13;;;;;;;11.00;10.20;;;;;;;;;;5084374;28;24420;-47
2022/08/13 14:38:39;;;;;;;10.80;9.90;;;;;;;;;;5070794;28;24784;-47
2022/08/13 14:41:04;;;;;;;11.70;10.80;;;;;;;;;;5083281;28;24426;-48
2022/08/13 14:43:30;;;;;;;10.10;9.30;;;;;;;;;;5066104;28;24529;-48
2022/08/13 14:45:57;;;;;;;10.25;9.35;;;;;;;;;;5069809;28;24496;-48
2022/08/13 14:48:22;;;;;;;9.85;9.15;;;;;;;;;;5086147;28;24430;-48